Whitewater Creek, Colorado (Grand Mesa) Weather observations

Data are for observation ending at time listed.
 Day   Time    Ave.   Ave.  Ave.  Vector   Max.    Total    Solar   Ave.  
  of    of     Air    Rel.  Wind   Wind    Wind   Precip.   Rad.    Soil  
Year   Day     Temp.  Hum.  Speed  Dir.    Gust                     Temp. 
2014   (MST)    F      %     mph   deg.    mph      in.     W/m2     F   
------------------------------------------------------------------------------
 303    3:10   29.9    39    2.2   280      2.2    99999.00   99999    99999.0
 303    3:20   30.4    41    2.2   280      2.2    99999.00   99999    99999.0
 303    3:30   30.3    42    2.2   280      2.2    99999.00   99999    99999.0
 303    3:40   30.3    42    2.2   280      2.2    99999.00   99999    99999.0
 303    3:50   30.9    42    2.2   280      2.2    99999.00   99999    99999.0
 303    4:00   30.7    44    2.2   280      2.2    99999.00   99999    99999.0
 303    4:10   30.5    46    2.2   280      2.2    99999.00   99999    99999.0
 303    4:20   30.3    47    2.2   280      2.2    99999.00   99999    99999.0
 303    4:30   30.8    46    2.2   280      2.2    99999.00   99999    99999.0
 303    4:40   30.9    46    2.2   280      2.2    99999.00   99999    99999.0
 303    4:50   30.1    50    2.2   280      2.2    99999.00   99999    99999.0
 303    5:00   30.0    51    2.2   280      2.2    99999.00   99999    99999.0
 303    5:10   30.7    50    2.2   280      2.2    99999.00   99999    99999.0
 303    5:20   31.5    48    2.2   280      2.2    99999.00   99999    99999.0
 303    5:30   33.9    44    2.2   305      2.2    99999.00   99999    99999.0
 303    5:40   30.9    50    2.2   309      2.2    99999.00   99999    99999.0
 303    5:50   30.1    52    2.2   309      2.2    99999.00   99999    99999.0
 303    6:00   30.8    51    2.2   309      2.2    99999.00   99999    99999.0
 303    6:10   31.0    50    2.2   309      2.2    99999.00   99999    99999.0
 303    6:20   31.6    50    2.2   309      2.2    99999.00   99999    99999.0
 303    6:30   31.5    50    2.2   309      2.2    99999.00   99999    99999.0
 303    6:40   30.2    54    2.2   309      2.2    99999.00   99999    99999.0
 303    6:50   29.7    55    2.2   309      2.2    99999.00   99999    99999.0
 303    7:00   29.2    56    2.2   309      2.2    99999.00   99999    99999.0
 303    7:10   28.6    57    2.2   309      2.2    99999.00   99999    99999.0
 303    7:20   28.5    59    2.2   309      2.2    99999.00   99999    99999.0
 303    7:30   28.9    56    2.2   309      2.2    99999.00   99999    99999.0
 303    7:40   28.9    58    2.2   309      2.2    99999.00   99999    99999.0
 303    7:50   29.5    55    2.2   309      2.2    99999.00   99999    99999.0
 303    8:00   29.2    57    2.2   309      2.2    99999.00   99999    99999.0
 303    8:10   29.3    58    2.2   309      2.2    99999.00   99999    99999.0
 303    8:20   33.5    49    2.2   309      2.2    99999.00   99999    99999.0
 303    8:30   36.9    44    2.2   309      2.2    99999.00   99999    99999.0
 303    8:40   36.2    46    2.2   309      2.2    99999.00   99999    99999.0
 303    8:50   37.3    44    2.2   309      2.2    99999.00   99999    99999.0
 303    9:00   39.0    41    2.2   309      2.2    99999.00   99999    99999.0
 303    9:10   39.7    44    2.2   309      2.2    99999.00   99999    99999.0
 303    9:20   42.7    38    2.2   309      2.2    99999.00   99999    99999.0
 303    9:30   46.1    31    2.2   296      2.2    99999.00   99999    99999.0
 303    9:40   45.5    30    2.4   277      4.8    99999.00   99999    99999.0
 303    9:50   45.0    29    2.9   304      6.1    99999.00   99999    99999.0
 303   10:00   45.4    28    3.3   311      6.1    99999.00   99999    99999.0
 303   10:10   45.5    28    2.6   325      4.8    99999.00   99999    99999.0
 303   10:20   46.8    28    2.5   320      6.1    99999.00   99999    99999.0
 303   10:30   47.4    28    3.0    10      4.8    99999.00   99999    99999.0
 303   10:40   47.0    29    2.7    32      6.1    99999.00   99999    99999.0
 303   10:50   47.4    29    3.4    36      6.1    99999.00   99999    99999.0
 303   11:00   47.9    28    3.2    28      6.1    99999.00   99999    99999.0
 303   11:10   47.8    29    3.5    29      7.4    99999.00   99999    99999.0
 303   11:20   47.8    29    4.3    34      7.4    99999.00   99999    99999.0
 303   11:30   47.8    30    4.2    39      7.4    99999.00   99999    99999.0
 303   11:40   47.9    30    4.3    34      7.4    99999.00   99999    99999.0
 303   11:50   47.8    30    3.4    38      6.1    99999.00   99999    99999.0
 303   12:00   47.9    31    3.4    42      6.1    99999.00   99999    99999.0
 303   12:10   47.9    31    4.1    39      8.6    99999.00   99999    99999.0
 303   12:20   47.4    31    4.9    26      8.6    99999.00   99999    99999.0
 303   12:30   47.3    30    5.6    35      9.9    99999.00   99999    99999.0
 303   12:40   46.8    31    5.9    30      8.6    99999.00   99999    99999.0
 303   12:50   47.1    31    4.2    45      7.4    99999.00   99999    99999.0
 303   13:00   48.0    30    4.0    31      7.4    99999.00   99999    99999.0
 303   13:10   48.6    30    4.4    32      8.6    99999.00   99999    99999.0
 303   13:20   48.9    30    4.3    38      8.6    99999.00   99999    99999.0
 303   13:30   48.8    29    4.0    46      8.6    99999.00   99999    99999.0
 303   13:40   49.0    29    3.8    25      7.4    99999.00   99999    99999.0
 303   13:50   49.4    29    3.4    30      8.6    99999.00   99999    99999.0
 303   14:00   49.2    29    4.0    49      8.6    99999.00   99999    99999.0
 303   14:10   49.4    29    5.3    17      9.9    99999.00   99999    99999.0
 303   14:20   50.0    29    5.0    41      8.6    99999.00   99999    99999.0
 303   14:30   50.0    28    6.3    17     11.2    99999.00   99999    99999.0
 303   14:40   49.9    28    5.5    20      8.6    99999.00   99999    99999.0
 303   14:50   50.0    29    5.6    25      8.6    99999.00   99999    99999.0
 303   15:00   50.1    29    5.0    21      9.9    99999.00   99999    99999.0
 303   15:10   49.6    29    4.7    47      7.4    99999.00   99999    99999.0
 303   15:20   49.5    29    3.4    27      6.1    99999.00   99999    99999.0
 303   15:30   49.9    28    2.9     5      6.1    99999.00   99999    99999.0
 303   15:40   51.2    27    5.5   221     11.2    99999.00   99999    99999.0
 303   15:50   50.6    27    5.8   215      9.9    99999.00   99999    99999.0
 303   16:00   51.2    26    4.5   204      7.4    99999.00   99999    99999.0
 303   16:10   52.3    25    3.2   222      7.4    99999.00   99999    99999.0
 303   16:20   51.4    26    4.9   205      9.9    99999.00   99999    99999.0
 303   16:30   51.3    26    3.7   219      6.1    99999.00   99999    99999.0
 303   16:40   51.2    25    4.1   227      7.4    99999.00   99999    99999.0
 303   16:50   51.0    24    4.7   215      7.4    99999.00   99999    99999.0
 303   17:00   50.8    24    3.7   224      7.4    99999.00   99999    99999.0
 303   17:10   51.0    24    3.5   221      6.1    99999.00   99999    99999.0
 303   17:20   50.8    25    3.0   230      4.8    99999.00   99999    99999.0
 303   17:30   50.0    26    3.3   244      6.1    99999.00   99999    99999.0
 303   17:40   50.4    26    2.2   254      2.2    99999.00   99999    99999.0
 303   17:50   51.3    26    2.2   253      2.2    99999.00   99999    99999.0
 303   18:00   50.7    26    2.2   253      2.2    99999.00   99999    99999.0
 303   18:10   46.6    31    2.2   280      2.2    99999.00   99999    99999.0
 303   18:20   42.3    36    2.2   322      2.2    99999.00   99999    99999.0
 303   18:30   39.4    41    2.2   323      2.2    99999.00   99999    99999.0
 303   18:40   38.5    43    2.2   339      2.2    99999.00   99999    99999.0
 303   18:50   38.1    44    2.2   339      2.2    99999.00   99999    99999.0
 303   19:00   36.6    46    2.2   339      2.2    99999.00   99999    99999.0
 303   19:10   36.3    48    2.2   339      2.2    99999.00   99999    99999.0
 303   19:20   36.2    49    2.2   339      2.2    99999.00   99999    99999.0
 303   19:30   36.2    48    2.2   339      2.2    99999.00   99999    99999.0
 303   19:40   35.8    50    2.2   339      2.2    99999.00   99999    99999.0
 303   19:50   35.9    50    2.2   339      2.2    99999.00   99999    99999.0
 303   20:00   36.7    48    2.2   339      2.2    99999.00   99999    99999.0
 303   20:10   36.1    50    2.2   339      2.2    99999.00   99999    99999.0
 303   20:20   35.5    50    2.2   339      2.2    99999.00   99999    99999.0
 303   20:30   35.1    49    2.2   339      2.2    99999.00   99999    99999.0
 303   20:40   34.7    51    2.2   339      2.2    99999.00   99999    99999.0
 303   20:50   35.5    49    2.2   339      2.2    99999.00   99999    99999.0
 303   21:00   35.5    50    2.2   339      2.2    99999.00   99999    99999.0
 303   21:10   34.9    52    2.2   339      2.2    99999.00   99999    99999.0
 303   21:20   35.0    51    2.2   339      2.2    99999.00   99999    99999.0
 303   21:30   34.1    53    2.2   339      2.2    99999.00   99999    99999.0
 303   21:40   34.7    51    2.2   339      2.2    99999.00   99999    99999.0
 303   21:50   36.2    47    2.2   309      2.2    99999.00   99999    99999.0
 303   22:00   38.4    42    2.2   254      2.2    99999.00   99999    99999.0
 303   22:10   38.0    43    2.2   254      2.2    99999.00   99999    99999.0
 303   22:20   37.7    44    2.2   248      2.2    99999.00   99999    99999.0
 303   22:30   37.4    46    2.2   205      2.2    99999.00   99999    99999.0
 303   22:40   39.1    42    3.8   171      6.1    99999.00   99999    99999.0
 303   22:50   40.8    40    4.1   176      6.1    99999.00   99999    99999.0
 303   23:00   38.8    43    3.2   177      4.8    99999.00   99999    99999.0
 303   23:10   38.4    44    3.7   182      4.8    99999.00   99999    99999.0
 303   23:20   38.0    44    2.9   176      4.8    99999.00   99999    99999.0
 303   23:30   40.0    39    2.8   177      4.8    99999.00   99999    99999.0
 303   23:40   39.3    39    3.3   176      6.1    99999.00   99999    99999.0
 303   23:50   39.3    39    2.2   188      2.2    99999.00   99999    99999.0
 304    0:00   39.6    37    2.2   200      2.2    99999.00   99999    99999.0
 304    0:10   38.7    39    2.2   203      2.2    99999.00   99999    99999.0
 304    0:20   38.4    38    2.2   203      2.2    99999.00   99999    99999.0
 304    0:30   38.2    38    2.2   203      2.2    99999.00   99999    99999.0
 304    0:40   36.6    41    2.2   203      2.2    99999.00   99999    99999.0
 304    0:50   36.4    41    2.2   203      2.2    99999.00   99999    99999.0
 304    1:00   36.7    40    2.2   201      2.2    99999.00   99999    99999.0
 304    1:10   38.7    35    3.0   182      7.4    99999.00   99999    99999.0
 304    1:20   40.4    32    4.4   183      7.4    99999.00   99999    99999.0
 304    1:30   40.9    30    4.2   181      6.1    99999.00   99999    99999.0
 304    1:40   42.9    26    6.4   187      9.9    99999.00   99999    99999.0
 304    1:50   43.8    25    7.3   184     11.2    99999.00   99999    99999.0
 304    2:00   43.7    25    8.0   188     11.2    99999.00   99999    99999.0
 304    2:10   42.2    28    5.9   201      9.9    99999.00   99999    99999.0
 304    2:20   39.9    31    6.3   216     11.2    99999.00   99999    99999.0
 304    2:30   40.1    32    8.8   205     15.0    99999.00   99999    99999.0
 304    2:40   42.7    32   14.9   199     21.4    99999.00   99999    99999.0
 304    2:50   43.5    31   15.2   197     21.4    99999.00   99999    99999.0
 304    3:00   43.5    31   12.8   200     17.6    99999.00   99999    99999.0

Return to Whitewater Creek, Colorado graphs page.


Western Regional Climate Center,wrcc@dri.edu